sensor_id;sensor_type;location;lat;lon;timestamp;P1;durP1;ratioP1;P2;durP2;ratioP2
28926;SDS011;16038;47.692;9.400;2024-02-23T00:02:19;2.97;;;0.70;;
28926;SDS011;16038;47.692;9.400;2024-02-23T00:04:44;0.50;;;0.50;;
28926;SDS011;16038;47.692;9.400;2024-02-23T00:07:10;2.22;;;0.70;;
28926;SDS011;16038;47.692;9.400;2024-02-23T00:09:36;1.42;;;0.50;;
28926;SDS011;16038;47.692;9.400;2024-02-23T00:12:02;1.00;;;0.70;;
28926;SDS011;16038;47.692;9.400;2024-02-23T00:14:27;0.70;;;0.50;;
28926;SDS011;16038;47.692;9.400;2024-02-23T00:16:53;0.50;;;0.50;;
28926;SDS011;16038;47.692;9.400;2024-02-23T00:19:18;0.43;;;0.43;;
28926;SDS011;16038;47.692;9.400;2024-02-23T00:21:45;2.10;;;0.60;;
28926;SDS011;16038;47.692;9.400;2024-02-23T00:26:41;0.40;;;0.40;;
28926;SDS011;16038;47.692;9.400;2024-02-23T00:29:07;1.30;;;0.60;;
28926;SDS011;16038;47.692;9.400;2024-02-23T00:31:32;0.57;;;0.50;;
28926;SDS011;16038;47.692;9.400;2024-02-23T00:33:58;0.50;;;0.50;;
28926;SDS011;16038;47.692;9.400;2024-02-23T00:36:23;0.50;;;0.50;;
28926;SDS011;16038;47.692;9.400;2024-02-23T00:38:49;0.50;;;0.50;;
28926;SDS011;16038;47.692;9.400;2024-02-23T00:41:14;2.75;;;0.50;;
28926;SDS011;16038;47.692;9.400;2024-02-23T00:43:40;0.40;;;0.40;;
28926;SDS011;16038;47.692;9.400;2024-02-23T00:46:06;2.42;;;0.60;;
28926;SDS011;16038;47.692;9.400;2024-02-23T00:48:33;1.85;;;0.60;;
28926;SDS011;16038;47.692;9.400;2024-02-23T00:50:58;1.10;;;0.70;;
28926;SDS011;16038;47.692;9.400;2024-02-23T00:53:23;1.48;;;0.50;;
28926;SDS011;16038;47.692;9.400;2024-02-23T00:55:49;0.50;;;0.50;;
28926;SDS011;16038;47.692;9.400;2024-02-23T00:58:14;1.38;;;0.60;;
28926;SDS011;16038;47.692;9.400;2024-02-23T01:00:41;0.88;;;0.57;;
28926;SDS011;16038;47.692;9.400;2024-02-23T01:03:06;1.20;;;0.60;;
28926;SDS011;16038;47.692;9.400;2024-02-23T01:05:32;1.13;;;0.60;;
28926;SDS011;16038;47.692;9.400;2024-02-23T01:07:57;0.50;;;0.50;;
28926;SDS011;16038;47.692;9.400;2024-02-23T01:10:23;0.90;;;0.60;;
28926;SDS011;16038;47.692;9.400;2024-02-23T01:12:48;0.60;;;0.55;;
28926;SDS011;16038;47.692;9.400;2024-02-23T01:15:14;2.22;;;0.60;;
28926;SDS011;16038;47.692;9.400;2024-02-23T01:17:39;0.50;;;0.50;;
28926;SDS011;16038;47.692;9.400;2024-02-23T01:20:05;0.98;;;0.50;;
28926;SDS011;16038;47.692;9.400;2024-02-23T01:22:30;0.57;;;0.52;;
28926;SDS011;16038;47.692;9.400;2024-02-23T01:24:56;0.60;;;0.60;;
28926;SDS011;16038;47.692;9.400;2024-02-23T01:27:22;1.52;;;0.60;;
28926;SDS011;16038;47.692;9.400;2024-02-23T01:29:48;2.15;;;0.50;;
28926;SDS011;16038;47.692;9.400;2024-02-23T01:32:13;0.60;;;0.60;;
28926;SDS011;16038;47.692;9.400;2024-02-23T01:34:39;0.52;;;0.50;;
28926;SDS011;16038;47.692;9.400;2024-02-23T01:37:04;0.77;;;0.63;;
28926;SDS011;16038;47.692;9.400;2024-02-23T01:39:29;1.23;;;0.63;;
28926;SDS011;16038;47.692;9.400;2024-02-23T01:41:55;0.50;;;0.50;;
28926;SDS011;16038;47.692;9.400;2024-02-23T01:44:20;0.50;;;0.50;;
28926;SDS011;16038;47.692;9.400;2024-02-23T01:46:46;0.88;;;0.65;;
28926;SDS011;16038;47.692;9.400;2024-02-23T01:49:12;0.60;;;0.60;;
28926;SDS011;16038;47.692;9.400;2024-02-23T01:51:39;0.98;;;0.60;;
28926;SDS011;16038;47.692;9.400;2024-02-23T01:54:04;1.40;;;0.70;;
28926;SDS011;16038;47.692;9.400;2024-02-23T01:56:31;0.70;;;0.68;;
28926;SDS011;16038;47.692;9.400;2024-02-23T01:58:57;1.73;;;0.75;;
28926;SDS011;16038;47.692;9.400;2024-02-23T02:01:24;1.05;;;0.57;;
28926;SDS011;16038;47.692;9.400;2024-02-23T02:03:50;1.65;;;0.60;;
28926;SDS011;16038;47.692;9.400;2024-02-23T02:06:15;1.25;;;0.60;;
28926;SDS011;16038;47.692;9.400;2024-02-23T02:08:41;0.68;;;0.50;;
28926;SDS011;16038;47.692;9.400;2024-02-23T02:11:06;0.55;;;0.55;;
28926;SDS011;16038;47.692;9.400;2024-02-23T02:13:31;1.45;;;0.65;;
28926;SDS011;16038;47.692;9.400;2024-02-23T02:16:00;1.48;;;0.70;;
28926;SDS011;16038;47.692;9.400;2024-02-23T02:18:27;1.00;;;0.60;;
28926;SDS011;16038;47.692;9.400;2024-02-23T02:20:56;0.50;;;0.50;;
28926;SDS011;16038;47.692;9.400;2024-02-23T02:23:22;2.70;;;0.70;;
28926;SDS011;16038;47.692;9.400;2024-02-23T02:25:54;2.20;;;0.63;;
28926;SDS011;16038;47.692;9.400;2024-02-23T02:28:21;1.63;;;0.68;;
28926;SDS011;16038;47.692;9.400;2024-02-23T02:30:51;0.95;;;0.60;;
28926;SDS011;16038;47.692;9.400;2024-02-23T02:33:20;0.55;;;0.55;;
28926;SDS011;16038;47.692;9.400;2024-02-23T02:35:46;1.33;;;0.80;;
28926;SDS011;16038;47.692;9.400;2024-02-23T02:38:12;2.05;;;0.60;;
28926;SDS011;16038;47.692;9.400;2024-02-23T02:40:37;0.60;;;0.60;;
28926;SDS011;16038;47.692;9.400;2024-02-23T02:43:03;0.70;;;0.60;;
28926;SDS011;16038;47.692;9.400;2024-02-23T02:45:29;1.85;;;0.65;;
28926;SDS011;16038;47.692;9.400;2024-02-23T02:47:54;0.77;;;0.60;;
28926;SDS011;16038;47.692;9.400;2024-02-23T02:50:21;0.57;;;0.57;;
28926;SDS011;16038;47.692;9.400;2024-02-23T02:52:47;1.33;;;0.73;;
28926;SDS011;16038;47.692;9.400;2024-02-23T02:55:12;1.27;;;0.60;;
28926;SDS011;16038;47.692;9.400;2024-02-23T02:57:38;1.92;;;0.65;;
28926;SDS011;16038;47.692;9.400;2024-02-23T03:00:03;1.27;;;0.70;;
28926;SDS011;16038;47.692;9.400;2024-02-23T03:02:33;0.68;;;0.68;;
28926;SDS011;16038;47.692;9.400;2024-02-23T03:04:58;1.90;;;0.65;;
28926;SDS011;16038;47.692;9.400;2024-02-23T03:07:24;1.35;;;0.75;;
28926;SDS011;16038;47.692;9.400;2024-02-23T03:09:49;1.08;;;0.70;;
28926;SDS011;16038;47.692;9.400;2024-02-23T03:12:16;2.20;;;0.80;;
28926;SDS011;16038;47.692;9.400;2024-02-23T03:14:42;1.05;;;0.60;;
28926;SDS011;16038;47.692;9.400;2024-02-23T03:17:08;1.35;;;0.98;;
28926;SDS011;16038;47.692;9.400;2024-02-23T03:19:36;1.05;;;0.70;;
28926;SDS011;16038;47.692;9.400;2024-02-23T03:22:02;3.03;;;0.70;;
28926;SDS011;16038;47.692;9.400;2024-02-23T03:24:28;2.53;;;0.75;;
28926;SDS011;16038;47.692;9.400;2024-02-23T03:26:53;2.85;;;0.80;;
28926;SDS011;16038;47.692;9.400;2024-02-23T03:29:20;2.35;;;0.77;;
28926;SDS011;16038;47.692;9.400;2024-02-23T03:31:47;1.50;;;0.80;;
28926;SDS011;16038;47.692;9.400;2024-02-23T03:34:12;2.72;;;0.80;;
28926;SDS011;16038;47.692;9.400;2024-02-23T03:36:38;1.95;;;0.80;;
28926;SDS011;16038;47.692;9.400;2024-02-23T03:39:04;2.20;;;0.75;;
28926;SDS011;16038;47.692;9.400;2024-02-23T03:41:29;3.05;;;0.90;;
28926;SDS011;16038;47.692;9.400;2024-02-23T03:43:54;2.70;;;0.77;;
28926;SDS011;16038;47.692;9.400;2024-02-23T03:46:20;6.53;;;0.77;;
28926;SDS011;16038;47.692;9.400;2024-02-23T03:48:46;0.98;;;0.70;;
28926;SDS011;16038;47.692;9.400;2024-02-23T03:51:12;3.60;;;1.13;;
28926;SDS011;16038;47.692;9.400;2024-02-23T03:53:37;1.95;;;0.82;;
28926;SDS011;16038;47.692;9.400;2024-02-23T03:56:03;2.65;;;0.80;;
28926;SDS011;16038;47.692;9.400;2024-02-23T03:58:28;2.92;;;0.70;;
28926;SDS011;16038;47.692;9.400;2024-02-23T04:00:54;3.55;;;0.70;;
28926;SDS011;16038;47.692;9.400;2024-02-23T04:03:19;3.58;;;0.90;;
28926;SDS011;16038;47.692;9.400;2024-02-23T04:05:45;2.72;;;0.80;;
28926;SDS011;16038;47.692;9.400;2024-02-23T04:08:10;3.78;;;0.70;;
28926;SDS011;16038;47.692;9.400;2024-02-23T04:10:36;1.67;;;0.80;;
28926;SDS011;16038;47.692;9.400;2024-02-23T04:13:02;1.02;;;0.70;;
28926;SDS011;16038;47.692;9.400;2024-02-23T04:15:28;2.10;;;0.80;;
28926;SDS011;16038;47.692;9.400;2024-02-23T04:17:54;3.05;;;0.77;;
28926;SDS011;16038;47.692;9.400;2024-02-23T04:20:19;4.20;;;0.70;;
28926;SDS011;16038;47.692;9.400;2024-02-23T04:22:44;6.50;;;0.93;;
28926;SDS011;16038;47.692;9.400;2024-02-23T04:25:11;2.88;;;0.90;;
28926;SDS011;16038;47.692;9.400;2024-02-23T04:27:36;1.88;;;0.70;;
28926;SDS011;16038;47.692;9.400;2024-02-23T04:30:02;3.67;;;0.93;;
28926;SDS011;16038;47.692;9.400;2024-02-23T04:32:28;0.73;;;0.70;;
28926;SDS011;16038;47.692;9.400;2024-02-23T04:34:55;1.45;;;0.70;;
28926;SDS011;16038;47.692;9.400;2024-02-23T04:37:20;1.85;;;0.82;;
28926;SDS011;16038;47.692;9.400;2024-02-23T04:39:45;2.28;;;0.90;;
28926;SDS011;16038;47.692;9.400;2024-02-23T04:42:11;5.13;;;0.80;;
28926;SDS011;16038;47.692;9.400;2024-02-23T04:44:36;1.27;;;0.90;;
28926;SDS011;16038;47.692;9.400;2024-02-23T04:47:02;6.55;;;1.58;;
28926;SDS011;16038;47.692;9.400;2024-02-23T04:49:27;4.22;;;1.10;;
28926;SDS011;16038;47.692;9.400;2024-02-23T04:51:53;2.80;;;0.90;;
28926;SDS011;16038;47.692;9.400;2024-02-23T04:54:19;0.80;;;0.80;;
28926;SDS011;16038;47.692;9.400;2024-02-23T04:56:46;1.65;;;0.93;;
28926;SDS011;16038;47.692;9.400;2024-02-23T04:59:12;2.42;;;1.00;;
28926;SDS011;16038;47.692;9.400;2024-02-23T05:01:38;0.80;;;0.70;;
28926;SDS011;16038;47.692;9.400;2024-02-23T05:04:03;4.53;;;0.80;;
28926;SDS011;16038;47.692;9.400;2024-02-23T05:06:29;1.80;;;0.77;;
28926;SDS011;16038;47.692;9.400;2024-02-23T05:08:55;4.93;;;0.98;;
28926;SDS011;16038;47.692;9.400;2024-02-23T05:11:20;1.55;;;0.70;;
28926;SDS011;16038;47.692;9.400;2024-02-23T05:13:45;1.35;;;0.90;;
28926;SDS011;16038;47.692;9.400;2024-02-23T05:16:11;2.50;;;0.82;;
28926;SDS011;16038;47.692;9.400;2024-02-23T05:18:38;1.73;;;0.73;;
28926;SDS011;16038;47.692;9.400;2024-02-23T05:21:03;2.63;;;0.77;;
28926;SDS011;16038;47.692;9.400;2024-02-23T05:23:29;3.10;;;0.90;;
28926;SDS011;16038;47.692;9.400;2024-02-23T05:25:54;2.25;;;1.00;;
28926;SDS011;16038;47.692;9.400;2024-02-23T05:28:19;3.00;;;1.13;;
28926;SDS011;16038;47.692;9.400;2024-02-23T05:30:45;3.00;;;0.70;;
28926;SDS011;16038;47.692;9.400;2024-02-23T05:33:10;1.80;;;0.95;;
28926;SDS011;16038;47.692;9.400;2024-02-23T05:35:36;1.70;;;0.88;;
28926;SDS011;16038;47.692;9.400;2024-02-23T05:38:02;1.30;;;0.80;;
28926;SDS011;16038;47.692;9.400;2024-02-23T05:40:27;1.60;;;0.70;;
28926;SDS011;16038;47.692;9.400;2024-02-23T05:42:52;1.00;;;0.77;;
28926;SDS011;16038;47.692;9.400;2024-02-23T05:45:18;1.90;;;0.63;;
28926;SDS011;16038;47.692;9.400;2024-02-23T05:47:44;2.38;;;0.82;;
28926;SDS011;16038;47.692;9.400;2024-02-23T05:50:09;2.08;;;0.80;;
28926;SDS011;16038;47.692;9.400;2024-02-23T05:52:35;1.60;;;0.85;;
28926;SDS011;16038;47.692;9.400;2024-02-23T05:55:02;0.73;;;0.70;;
28926;SDS011;16038;47.692;9.400;2024-02-23T05:57:30;1.08;;;0.80;;
28926;SDS011;16038;47.692;9.400;2024-02-23T05:59:56;5.40;;;1.00;;
28926;SDS011;16038;47.692;9.400;2024-02-23T06:02:22;4.53;;;0.90;;
28926;SDS011;16038;47.692;9.400;2024-02-23T06:04:47;1.25;;;0.80;;
28926;SDS011;16038;47.692;9.400;2024-02-23T06:07:13;4.20;;;0.98;;
28926;SDS011;16038;47.692;9.400;2024-02-23T06:09:45;3.10;;;1.02;;
28926;SDS011;16038;47.692;9.400;2024-02-23T06:12:10;1.48;;;0.80;;
28926;SDS011;16038;47.692;9.400;2024-02-23T06:14:36;3.90;;;1.30;;
28926;SDS011;16038;47.692;9.400;2024-02-23T06:17:02;1.17;;;0.75;;
28926;SDS011;16038;47.692;9.400;2024-02-23T06:19:28;3.45;;;1.33;;
28926;SDS011;16038;47.692;9.400;2024-02-23T06:21:53;2.17;;;1.23;;
28926;SDS011;16038;47.692;9.400;2024-02-23T06:24:19;1.92;;;0.80;;
28926;SDS011;16038;47.692;9.400;2024-02-23T06:26:44;1.88;;;0.80;;
28926;SDS011;16038;47.692;9.400;2024-02-23T06:29:11;3.22;;;1.08;;
28926;SDS011;16038;47.692;9.400;2024-02-23T06:31:38;1.00;;;0.80;;
28926;SDS011;16038;47.692;9.400;2024-02-23T06:34:07;3.17;;;0.90;;
28926;SDS011;16038;47.692;9.400;2024-02-23T06:36:33;2.65;;;1.02;;
28926;SDS011;16038;47.692;9.400;2024-02-23T06:38:58;1.73;;;0.88;;
28926;SDS011;16038;47.692;9.400;2024-02-23T06:41:23;3.75;;;0.98;;
28926;SDS011;16038;47.692;9.400;2024-02-23T06:43:49;5.70;;;1.52;;
28926;SDS011;16038;47.692;9.400;2024-02-23T06:46:14;3.17;;;1.20;;
28926;SDS011;16038;47.692;9.400;2024-02-23T06:48:40;4.45;;;1.02;;
28926;SDS011;16038;47.692;9.400;2024-02-23T06:51:05;3.53;;;1.45;;
28926;SDS011;16038;47.692;9.400;2024-02-23T06:53:34;1.87;;;1.27;;
28926;SDS011;16038;47.692;9.400;2024-02-23T06:56:00;3.85;;;1.60;;
28926;SDS011;16038;47.692;9.400;2024-02-23T06:58:26;3.85;;;2.17;;
28926;SDS011;16038;47.692;9.400;2024-02-23T07:00:51;6.07;;;2.20;;
28926;SDS011;16038;47.692;9.400;2024-02-23T07:03:17;4.68;;;1.90;;
28926;SDS011;16038;47.692;9.400;2024-02-23T07:05:43;2.38;;;1.40;;
28926;SDS011;16038;47.692;9.400;2024-02-23T07:08:08;3.53;;;1.95;;
28926;SDS011;16038;47.692;9.400;2024-02-23T07:10:33;7.65;;;2.63;;
28926;SDS011;16038;47.692;9.400;2024-02-23T07:12:59;3.38;;;2.17;;
28926;SDS011;16038;47.692;9.400;2024-02-23T07:15:24;3.28;;;1.85;;
28926;SDS011;16038;47.692;9.400;2024-02-23T07:17:51;5.15;;;2.00;;
28926;SDS011;16038;47.692;9.400;2024-02-23T07:20:17;4.15;;;2.30;;
28926;SDS011;16038;47.692;9.400;2024-02-23T07:22:43;5.90;;;3.40;;
28926;SDS011;16038;47.692;9.400;2024-02-23T07:25:09;10.20;;;4.78;;
28926;SDS011;16038;47.692;9.400;2024-02-23T07:27:35;7.55;;;3.60;;
28926;SDS011;16038;47.692;9.400;2024-02-23T07:30:00;6.03;;;3.22;;
28926;SDS011;16038;47.692;9.400;2024-02-23T07:32:26;4.35;;;2.72;;
28926;SDS011;16038;47.692;9.400;2024-02-23T07:34:52;6.95;;;2.92;;
28926;SDS011;16038;47.692;9.400;2024-02-23T07:37:17;6.28;;;2.42;;
28926;SDS011;16038;47.692;9.400;2024-02-23T07:39:43;6.68;;;3.42;;
28926;SDS011;16038;47.692;9.400;2024-02-23T07:42:08;5.35;;;2.42;;
28926;SDS011;16038;47.692;9.400;2024-02-23T07:44:35;5.32;;;2.20;;
28926;SDS011;16038;47.692;9.400;2024-02-23T07:47:02;3.35;;;2.15;;
28926;SDS011;16038;47.692;9.400;2024-02-23T07:49:28;4.25;;;1.67;;
28926;SDS011;16038;47.692;9.400;2024-02-23T07:51:54;4.18;;;2.00;;
28926;SDS011;16038;47.692;9.400;2024-02-23T07:54:19;3.95;;;2.05;;
28926;SDS011;16038;47.692;9.400;2024-02-23T07:56:44;4.13;;;1.83;;
28926;SDS011;16038;47.692;9.400;2024-02-23T07:59:10;4.53;;;1.40;;
28926;SDS011;16038;47.692;9.400;2024-02-23T08:01:35;3.25;;;1.13;;
28926;SDS011;16038;47.692;9.400;2024-02-23T08:04:00;2.38;;;1.27;;
28926;SDS011;16038;47.692;9.400;2024-02-23T08:06:26;6.65;;;1.30;;
28926;SDS011;16038;47.692;9.400;2024-02-23T08:08:52;2.65;;;1.40;;
28926;SDS011;16038;47.692;9.400;2024-02-23T08:11:18;3.10;;;0.98;;
28926;SDS011;16038;47.692;9.400;2024-02-23T08:13:44;5.70;;;2.20;;
28926;SDS011;16038;47.692;9.400;2024-02-23T08:16:09;4.57;;;1.48;;
28926;SDS011;16038;47.692;9.400;2024-02-23T08:18:35;4.10;;;1.35;;
28926;SDS011;16038;47.692;9.400;2024-02-23T08:21:01;2.55;;;1.40;;
28926;SDS011;16038;47.692;9.400;2024-02-23T08:23:28;4.43;;;1.60;;
28926;SDS011;16038;47.692;9.400;2024-02-23T08:25:55;5.15;;;1.65;;
28926;SDS011;16038;47.692;9.400;2024-02-23T08:28:21;5.25;;;1.42;;
28926;SDS011;16038;47.692;9.400;2024-02-23T08:30:48;6.50;;;1.60;;
28926;SDS011;16038;47.692;9.400;2024-02-23T08:33:13;2.40;;;1.40;;
28926;SDS011;16038;47.692;9.400;2024-02-23T08:35:39;2.30;;;1.27;;
28926;SDS011;16038;47.692;9.400;2024-02-23T08:38:04;3.20;;;1.50;;
28926;SDS011;16038;47.692;9.400;2024-02-23T08:40:29;3.78;;;1.30;;
28926;SDS011;16038;47.692;9.400;2024-02-23T08:42:55;4.00;;;1.45;;
28926;SDS011;16038;47.692;9.400;2024-02-23T08:45:20;3.13;;;1.58;;
28926;SDS011;16038;47.692;9.400;2024-02-23T08:47:45;11.45;;;1.45;;
28926;SDS011;16038;47.692;9.400;2024-02-23T08:50:11;4.25;;;1.67;;
28926;SDS011;16038;47.692;9.400;2024-02-23T08:52:36;3.55;;;1.33;;
28926;SDS011;16038;47.692;9.400;2024-02-23T08:55:02;10.40;;;1.30;;
28926;SDS011;16038;47.692;9.400;2024-02-23T08:57:28;4.72;;;1.40;;
28926;SDS011;16038;47.692;9.400;2024-02-23T08:59:54;2.78;;;1.30;;
28926;SDS011;16038;47.692;9.400;2024-02-23T09:02:22;5.30;;;1.30;;
28926;SDS011;16038;47.692;9.400;2024-02-23T09:04:48;3.47;;;1.20;;
28926;SDS011;16038;47.692;9.400;2024-02-23T09:07:13;2.15;;;1.10;;
28926;SDS011;16038;47.692;9.400;2024-02-23T09:09:39;3.05;;;1.20;;
28926;SDS011;16038;47.692;9.400;2024-02-23T09:12:04;2.60;;;1.30;;
28926;SDS011;16038;47.692;9.400;2024-02-23T09:14:32;6.30;;;1.20;;
28926;SDS011;16038;47.692;9.400;2024-02-23T09:16:58;5.80;;;2.17;;
28926;SDS011;16038;47.692;9.400;2024-02-23T09:19:23;4.57;;;1.23;;
28926;SDS011;16038;47.692;9.400;2024-02-23T09:21:49;3.13;;;1.35;;
28926;SDS011;16038;47.692;9.400;2024-02-23T09:24:14;6.35;;;1.60;;
28926;SDS011;16038;47.692;9.400;2024-02-23T09:26:39;2.97;;;1.15;;
28926;SDS011;16038;47.692;9.400;2024-02-23T09:29:05;1.20;;;1.00;;
28926;SDS011;16038;47.692;9.400;2024-02-23T09:31:30;2.15;;;1.23;;
28926;SDS011;16038;47.692;9.400;2024-02-23T09:33:57;2.20;;;1.20;;
28926;SDS011;16038;47.692;9.400;2024-02-23T09:36:23;3.20;;;1.40;;
28926;SDS011;16038;47.692;9.400;2024-02-23T09:38:49;2.17;;;1.23;;
28926;SDS011;16038;47.692;9.400;2024-02-23T09:41:22;3.00;;;1.40;;
28926;SDS011;16038;47.692;9.400;2024-02-23T09:43:48;5.40;;;1.40;;
28926;SDS011;16038;47.692;9.400;2024-02-23T09:46:18;6.72;;;1.60;;
28926;SDS011;16038;47.692;9.400;2024-02-23T09:48:44;6.73;;;1.43;;
28926;SDS011;16038;47.692;9.400;2024-02-23T09:51:10;4.75;;;1.60;;
28926;SDS011;16038;47.692;9.400;2024-02-23T09:53:37;8.05;;;1.50;;
28926;SDS011;16038;47.692;9.400;2024-02-23T09:56:04;5.00;;;1.60;;
28926;SDS011;16038;47.692;9.400;2024-02-23T09:58:31;2.90;;;1.42;;
28926;SDS011;16038;47.692;9.400;2024-02-23T10:00:58;6.72;;;2.05;;
28926;SDS011;16038;47.692;9.400;2024-02-23T10:03:27;3.90;;;1.50;;
28926;SDS011;16038;47.692;9.400;2024-02-23T10:05:55;5.78;;;1.90;;
28926;SDS011;16038;47.692;9.400;2024-02-23T10:08:21;4.82;;;1.90;;
28926;SDS011;16038;47.692;9.400;2024-02-23T10:10:47;6.68;;;1.80;;
28926;SDS011;16038;47.692;9.400;2024-02-23T10:13:17;3.85;;;1.73;;
28926;SDS011;16038;47.692;9.400;2024-02-23T10:15:45;7.25;;;1.60;;
28926;SDS011;16038;47.692;9.400;2024-02-23T10:18:11;5.13;;;2.08;;
28926;SDS011;16038;47.692;9.400;2024-02-23T10:20:37;11.63;;;2.10;;
28926;SDS011;16038;47.692;9.400;2024-02-23T10:23:04;9.05;;;2.33;;
28926;SDS011;16038;47.692;9.400;2024-02-23T10:25:29;3.67;;;1.70;;
28926;SDS011;16038;47.692;9.400;2024-02-23T10:27:55;5.07;;;1.40;;
28926;SDS011;16038;47.692;9.400;2024-02-23T10:30:20;2.70;;;1.70;;
28926;SDS011;16038;47.692;9.400;2024-02-23T10:32:46;5.82;;;1.80;;
28926;SDS011;16038;47.692;9.400;2024-02-23T10:35:15;6.88;;;2.60;;
28926;SDS011;16038;47.692;9.400;2024-02-23T10:37:44;9.30;;;2.65;;
28926;SDS011;16038;47.692;9.400;2024-02-23T10:40:15;4.55;;;1.45;;
28926;SDS011;16038;47.692;9.400;2024-02-23T10:42:45;4.85;;;1.60;;
28926;SDS011;16038;47.692;9.400;2024-02-23T10:45:19;3.47;;;1.40;;
28926;SDS011;16038;47.692;9.400;2024-02-23T10:47:50;5.63;;;1.75;;
28926;SDS011;16038;47.692;9.400;2024-02-23T10:50:16;8.10;;;1.40;;
28926;SDS011;16038;47.692;9.400;2024-02-23T10:52:44;8.18;;;1.52;;
28926;SDS011;16038;47.692;9.400;2024-02-23T10:55:10;6.82;;;1.52;;
28926;SDS011;16038;47.692;9.400;2024-02-23T10:57:36;7.97;;;1.30;;
28926;SDS011;16038;47.692;9.400;2024-02-23T11:00:03;7.35;;;1.58;;
28926;SDS011;16038;47.692;9.400;2024-02-23T11:02:56;9.02;;;1.50;;
28926;SDS011;16038;47.692;9.400;2024-02-23T11:05:21;10.27;;;1.90;;
28926;SDS011;16038;47.692;9.400;2024-02-23T11:07:48;3.10;;;1.33;;
28926;SDS011;16038;47.692;9.400;2024-02-23T11:10:14;4.55;;;1.20;;
28926;SDS011;16038;47.692;9.400;2024-02-23T11:12:40;5.65;;;1.50;;
28926;SDS011;16038;47.692;9.400;2024-02-23T11:15:06;9.05;;;1.88;;
28926;SDS011;16038;47.692;9.400;2024-02-23T11:17:32;5.82;;;1.20;;
28926;SDS011;16038;47.692;9.400;2024-02-23T11:20:02;4.00;;;1.10;;
28926;SDS011;16038;47.692;9.400;2024-02-23T11:22:32;5.60;;;1.50;;
28926;SDS011;16038;47.692;9.400;2024-02-23T11:25:03;3.47;;;1.30;;
28926;SDS011;16038;47.692;9.400;2024-02-23T11:27:30;5.57;;;1.25;;
28926;SDS011;16038;47.692;9.400;2024-02-23T11:30:04;3.33;;;1.27;;
28926;SDS011;16038;47.692;9.400;2024-02-23T11:32:37;7.43;;;1.58;;
28926;SDS011;16038;47.692;9.400;2024-02-23T11:35:06;10.35;;;1.58;;
28926;SDS011;16038;47.692;9.400;2024-02-23T11:40:26;3.03;;;1.13;;
28926;SDS011;16038;47.692;9.400;2024-02-23T11:42:54;7.15;;;1.33;;
28926;SDS011;16038;47.692;9.400;2024-02-23T11:45:20;5.30;;;1.10;;
28926;SDS011;16038;47.692;9.400;2024-02-23T11:47:46;9.27;;;1.88;;
28926;SDS011;16038;47.692;9.400;2024-02-23T11:50:11;4.65;;;1.10;;
28926;SDS011;16038;47.692;9.400;2024-02-23T11:52:37;7.20;;;1.15;;
28926;SDS011;16038;47.692;9.400;2024-02-23T11:55:03;8.63;;;1.20;;
28926;SDS011;16038;47.692;9.400;2024-02-23T11:57:31;10.27;;;1.67;;
28926;SDS011;16038;47.692;9.400;2024-02-23T11:59:57;6.45;;;1.30;;
28926;SDS011;16038;47.692;9.400;2024-02-23T12:02:23;2.35;;;1.20;;
28926;SDS011;16038;47.692;9.400;2024-02-23T12:04:49;3.08;;;0.93;;
28926;SDS011;16038;47.692;9.400;2024-02-23T12:07:14;6.68;;;1.63;;
28926;SDS011;16038;47.692;9.400;2024-02-23T12:09:41;11.90;;;1.48;;
28926;SDS011;16038;47.692;9.400;2024-02-23T12:12:07;5.55;;;1.13;;
28926;SDS011;16038;47.692;9.400;2024-02-23T12:14:35;4.18;;;1.17;;
28926;SDS011;16038;47.692;9.400;2024-02-23T12:17:01;7.20;;;1.30;;
28926;SDS011;16038;47.692;9.400;2024-02-23T12:19:29;7.80;;;1.30;;
28926;SDS011;16038;47.692;9.400;2024-02-23T12:21:59;7.10;;;1.85;;
28926;SDS011;16038;47.692;9.400;2024-02-23T12:24:26;8.90;;;2.10;;
28926;SDS011;16038;47.692;9.400;2024-02-23T12:26:56;6.38;;;1.90;;
28926;SDS011;16038;47.692;9.400;2024-02-23T12:29:22;5.22;;;2.17;;
28926;SDS011;16038;47.692;9.400;2024-02-23T12:31:47;13.40;;;2.25;;
28926;SDS011;16038;47.692;9.400;2024-02-23T12:34:13;4.82;;;1.70;;
28926;SDS011;16038;47.692;9.400;2024-02-23T12:36:39;4.93;;;1.50;;
28926;SDS011;16038;47.692;9.400;2024-02-23T12:39:04;5.15;;;1.75;;
28926;SDS011;16038;47.692;9.400;2024-02-23T12:41:30;4.93;;;1.77;;
28926;SDS011;16038;47.692;9.400;2024-02-23T12:43:56;5.22;;;1.45;;
28926;SDS011;16038;47.692;9.400;2024-02-23T12:46:21;6.95;;;2.13;;
28926;SDS011;16038;47.692;9.400;2024-02-23T12:48:46;4.32;;;1.67;;
28926;SDS011;16038;47.692;9.400;2024-02-23T12:51:12;7.18;;;2.22;;
28926;SDS011;16038;47.692;9.400;2024-02-23T12:53:38;3.10;;;1.60;;
28926;SDS011;16038;47.692;9.400;2024-02-23T12:56:05;4.93;;;1.40;;
28926;SDS011;16038;47.692;9.400;2024-02-23T12:58:41;5.10;;;1.92;;
28926;SDS011;16038;47.692;9.400;2024-02-23T13:01:08;2.95;;;1.00;;
28926;SDS011;16038;47.692;9.400;2024-02-23T13:03:34;5.68;;;2.63;;
28926;SDS011;16038;47.692;9.400;2024-02-23T13:06:00;6.50;;;2.03;;
28926;SDS011;16038;47.692;9.400;2024-02-23T13:08:27;7.18;;;2.38;;
28926;SDS011;16038;47.692;9.400;2024-02-23T13:10:53;3.30;;;1.10;;
28926;SDS011;16038;47.692;9.400;2024-02-23T13:13:20;10.88;;;3.60;;
28926;SDS011;16038;47.692;9.400;2024-02-23T13:15:47;8.18;;;2.33;;
28926;SDS011;16038;47.692;9.400;2024-02-23T13:18:13;2.30;;;1.13;;
28926;SDS011;16038;47.692;9.400;2024-02-23T13:20:38;6.18;;;3.38;;
28926;SDS011;16038;47.692;9.400;2024-02-23T13:23:04;4.40;;;1.20;;
28926;SDS011;16038;47.692;9.400;2024-02-23T13:25:32;2.85;;;1.20;;
28926;SDS011;16038;47.692;9.400;2024-02-23T13:27:57;7.10;;;1.63;;
28926;SDS011;16038;47.692;9.400;2024-02-23T13:30:23;4.28;;;1.45;;
28926;SDS011;16038;47.692;9.400;2024-02-23T13:32:48;5.88;;;1.48;;
28926;SDS011;16038;47.692;9.400;2024-02-23T13:35:14;4.80;;;1.88;;
28926;SDS011;16038;47.692;9.400;2024-02-23T13:37:40;3.00;;;1.20;;
28926;SDS011;16038;47.692;9.400;2024-02-23T13:40:07;7.43;;;1.67;;
28926;SDS011;16038;47.692;9.400;2024-02-23T13:42:34;4.95;;;1.17;;
28926;SDS011;16038;47.692;9.400;2024-02-23T13:44:59;6.60;;;1.20;;
28926;SDS011;16038;47.692;9.400;2024-02-23T13:47:25;1.38;;;0.90;;
28926;SDS011;16038;47.692;9.400;2024-02-23T13:49:50;4.53;;;1.30;;
28926;SDS011;16038;47.692;9.400;2024-02-23T13:52:16;7.78;;;1.80;;
28926;SDS011;16038;47.692;9.400;2024-02-23T13:54:41;5.13;;;1.50;;
28926;SDS011;16038;47.692;9.400;2024-02-23T13:57:08;3.15;;;1.48;;
28926;SDS011;16038;47.692;9.400;2024-02-23T13:59:33;6.00;;;1.70;;
28926;SDS011;16038;47.692;9.400;2024-02-23T14:01:59;5.70;;;2.08;;
28926;SDS011;16038;47.692;9.400;2024-02-23T14:04:25;10.93;;;2.55;;
28926;SDS011;16038;47.692;9.400;2024-02-23T14:06:51;6.00;;;1.67;;
28926;SDS011;16038;47.692;9.400;2024-02-23T14:09:16;6.05;;;1.40;;
28926;SDS011;16038;47.692;9.400;2024-02-23T14:11:42;8.82;;;2.35;;
28926;SDS011;16038;47.692;9.400;2024-02-23T14:14:08;4.63;;;2.08;;
28926;SDS011;16038;47.692;9.400;2024-02-23T14:16:33;3.92;;;2.08;;
28926;SDS011;16038;47.692;9.400;2024-02-23T14:19:00;3.63;;;1.10;;
28926;SDS011;16038;47.692;9.400;2024-02-23T14:21:25;4.78;;;1.10;;
28926;SDS011;16038;47.692;9.400;2024-02-23T14:23:51;27.92;;;8.52;;
28926;SDS011;16038;47.692;9.400;2024-02-23T14:26:17;19.77;;;5.10;;
28926;SDS011;16038;47.692;9.400;2024-02-23T14:28:42;30.40;;;9.00;;
28926;SDS011;16038;47.692;9.400;2024-02-23T14:31:07;16.63;;;5.55;;
28926;SDS011;16038;47.692;9.400;2024-02-23T14:33:33;4.43;;;1.60;;
28926;SDS011;16038;47.692;9.400;2024-02-23T14:35:58;3.90;;;1.20;;
28926;SDS011;16038;47.692;9.400;2024-02-23T14:38:24;2.60;;;1.20;;
28926;SDS011;16038;47.692;9.400;2024-02-23T14:40:49;4.93;;;1.20;;
28926;SDS011;16038;47.692;9.400;2024-02-23T14:43:15;2.90;;;1.13;;
28926;SDS011;16038;47.692;9.400;2024-02-23T14:45:40;1.45;;;0.77;;
28926;SDS011;16038;47.692;9.400;2024-02-23T14:48:06;4.28;;;0.90;;